createdAt,value
2019-04-01T00:01:24.290Z,-4.60
2019-04-01T00:03:54.634Z,-4.60
2019-04-01T00:06:24.505Z,-4.70
2019-04-01T00:08:54.527Z,-4.80
2019-04-01T00:11:25.216Z,-4.80
2019-04-01T00:13:55.180Z,-4.90
2019-04-01T00:16:25.170Z,-4.90
2019-04-01T00:19:02.868Z,-4.80
2019-04-01T00:21:26.932Z,-4.80
2019-04-01T00:23:57.242Z,-4.80
2019-04-01T00:26:27.606Z,-4.80
2019-04-01T00:28:57.518Z,-4.80
2019-04-01T00:31:27.791Z,-4.80
2019-04-01T00:33:57.702Z,-4.90
2019-04-01T00:36:27.585Z,-5.00
2019-04-01T00:38:57.966Z,-4.90
2019-04-01T00:41:28.216Z,-4.90
2019-04-01T00:44:16.492Z,-5.00
2019-04-01T00:46:46.934Z,-5.10
2019-04-01T00:49:16.786Z,-5.20
2019-04-01T00:51:47.099Z,-5.20
2019-04-01T00:54:17.103Z,-5.10
2019-04-01T00:56:47.346Z,-5.10
2019-04-01T00:59:17.580Z,-5.10
2019-04-01T01:01:47.444Z,-5.10
2019-04-01T01:04:17.357Z,-5.20
2019-04-01T01:06:47.732Z,-5.10
2019-04-01T01:09:17.642Z,-5.20
2019-04-01T01:11:48.262Z,-5.20
2019-04-01T01:14:18.222Z,-5.20
2019-04-01T01:16:48.131Z,-5.10
2019-04-01T01:19:18.309Z,-5.10
2019-04-01T01:21:48.283Z,-5.20
2019-04-01T01:24:18.213Z,-5.20
2019-04-01T01:26:48.769Z,-5.30
2019-04-01T01:29:18.728Z,-5.40
2019-04-01T01:31:48.623Z,-5.30
2019-04-01T01:34:18.653Z,-5.30
2019-04-01T01:36:48.604Z,-5.40
2019-04-01T01:39:18.440Z,-5.50
2019-04-01T01:41:49.009Z,-5.50
2019-04-01T01:44:19.016Z,-5.60
2019-04-01T01:46:48.930Z,-5.60
2019-04-01T01:49:19.249Z,-5.60
2019-04-01T01:51:49.213Z,-5.80
2019-04-01T01:54:19.176Z,-5.80
2019-04-01T01:56:49.709Z,-5.90
2019-04-01T01:59:19.693Z,-5.90
2019-04-01T02:01:49.605Z,-5.90
2019-04-01T02:04:19.873Z,-5.90
2019-04-01T02:06:49.845Z,-5.90
2019-04-01T02:09:19.769Z,-5.90
2019-04-01T02:11:50.439Z,-5.80
2019-04-01T02:14:20.391Z,-5.70
2019-04-01T02:16:50.297Z,-5.80
2019-04-01T02:19:20.580Z,-5.80
2019-04-01T02:21:50.547Z,-5.70
2019-04-01T02:24:20.439Z,-5.70
2019-04-01T02:26:51.149Z,-5.70
2019-04-01T02:29:21.143Z,-5.80
2019-04-01T02:31:51.062Z,-5.70
2019-04-01T02:34:21.416Z,-5.70
2019-04-01T02:36:51.394Z,-5.80
2019-04-01T02:39:21.286Z,-5.80
2019-04-01T02:41:51.760Z,-5.80
2019-04-01T02:44:21.750Z,-5.90
2019-04-01T02:46:51.678Z,-5.90
2019-04-01T02:49:21.974Z,-5.90
2019-04-01T02:51:52.115Z,-5.90
2019-04-01T02:54:22.486Z,-5.90
2019-04-01T02:56:52.761Z,-5.90
2019-04-01T02:59:22.699Z,-5.90
2019-04-01T03:01:52.964Z,-6.00
2019-04-01T03:04:22.977Z,-6.10
2019-04-01T03:06:52.976Z,-6.10
2019-04-01T03:09:23.297Z,-6.00
2019-04-01T03:11:53.508Z,-6.00
2019-04-01T03:14:23.425Z,-6.10
2019-04-01T03:16:53.874Z,-6.10
2019-04-01T03:19:23.805Z,-6.00
2019-04-01T03:21:53.762Z,-6.20
2019-04-01T03:24:24.228Z,-6.20
2019-04-01T03:26:54.470Z,-6.30
2019-04-01T03:29:24.426Z,-6.40
2019-04-01T03:31:54.710Z,-6.40
2019-04-01T03:34:24.628Z,-6.30
2019-04-01T03:36:54.558Z,-6.30
2019-04-01T03:39:24.845Z,-6.40
2019-04-01T03:41:55.190Z,-6.40
2019-04-01T03:44:25.144Z,-6.40
2019-04-01T03:46:55.069Z,-6.40
2019-04-01T03:49:25.333Z,-6.40
2019-04-01T03:51:55.283Z,-6.40
2019-04-01T03:54:25.245Z,-6.50
2019-04-01T03:56:55.794Z,-6.60
2019-04-01T03:59:25.771Z,-6.40
2019-04-01T04:01:56.239Z,-6.50
2019-04-01T04:04:26.124Z,-6.50
2019-04-01T04:06:56.271Z,-6.50
2019-04-01T04:09:26.263Z,-6.60
2019-04-01T04:11:56.282Z,-6.60
2019-04-01T04:14:26.235Z,-6.60
2019-04-01T04:16:56.318Z,-6.70
2019-04-01T04:19:26.491Z,-6.70
2019-04-01T04:21:56.417Z,-6.70
2019-04-01T04:24:26.289Z,-6.70
2019-04-01T04:26:56.637Z,-6.60
2019-04-01T04:29:26.619Z,-6.70
2019-04-01T04:31:56.660Z,-6.80
2019-04-01T04:34:26.968Z,-6.70
2019-04-01T04:36:57.087Z,-6.80
2019-04-01T04:39:26.952Z,-6.80
2019-04-01T04:41:57.267Z,-6.70
2019-04-01T04:44:27.668Z,-6.70
2019-04-01T04:46:57.746Z,-6.70
2019-04-01T04:49:28.105Z,-6.60
2019-04-01T04:51:58.061Z,-6.70
2019-04-01T04:54:27.999Z,-6.70
2019-04-01T04:56:58.276Z,-6.60
2019-04-01T04:59:28.650Z,-6.60
2019-04-01T05:01:58.570Z,-6.70
2019-04-01T05:04:28.839Z,-6.70
2019-04-01T05:06:58.773Z,-6.70
2019-04-01T05:09:28.623Z,-6.70
2019-04-01T05:11:58.908Z,-6.70
2019-04-01T05:14:29.031Z,-6.70
2019-04-01T05:16:59.092Z,-6.60
2019-04-01T05:19:29.456Z,-6.60
2019-04-01T05:22:00.087Z,-6.50
2019-04-01T05:24:31.290Z,-6.50
2019-04-01T05:27:04.076Z,-6.50
2019-04-01T05:29:35.764Z,-6.40
2019-04-01T05:32:06.457Z,-6.40
2019-04-01T05:34:39.798Z,-6.30
2019-04-01T05:37:09.845Z,-6.30
2019-04-01T05:39:39.842Z,-6.30
2019-04-01T05:42:10.271Z,-6.10
2019-04-01T05:44:40.717Z,-6.00
2019-04-01T05:47:10.834Z,-5.90
2019-04-01T05:49:41.463Z,-5.90
2019-04-01T05:52:11.443Z,-5.80
2019-04-01T05:54:41.417Z,-5.70
2019-04-01T05:57:11.509Z,-5.70
2019-04-01T05:59:41.838Z,-5.60
2019-04-01T06:02:12.367Z,-5.50
2019-04-01T06:04:42.298Z,-5.40
2019-04-01T06:07:12.332Z,-5.40
2019-04-01T06:09:42.704Z,-5.30
2019-04-01T06:12:12.800Z,-5.00
2019-04-01T06:14:43.495Z,-4.90
2019-04-01T06:17:13.401Z,-4.80
2019-04-01T06:19:43.714Z,-4.60
2019-04-01T06:22:14.144Z,-4.30
2019-04-01T06:24:44.010Z,-4.10
2019-04-01T06:27:14.293Z,-4.00
2019-04-01T06:29:46.049Z,-3.90
2019-04-01T06:32:16.067Z,-3.90
2019-04-01T06:34:52.799Z,-3.90
2019-04-01T06:37:18.445Z,-3.80
2019-04-01T06:39:48.417Z,-3.70
2019-04-01T06:42:18.435Z,-3.40
2019-04-01T06:44:49.210Z,-3.20
2019-04-01T06:47:19.119Z,-3.00
2019-04-01T06:49:49.151Z,-2.90
2019-04-01T06:52:19.589Z,-2.60
2019-04-01T06:54:49.459Z,-2.50
2019-04-01T06:57:19.634Z,-2.40
2019-04-01T06:59:50.360Z,-2.30
2019-04-01T07:02:20.464Z,-2.10
2019-04-01T07:04:51.202Z,-2.10
2019-04-01T07:07:21.112Z,-2.00
2019-04-01T07:09:51.016Z,-1.80
2019-04-01T07:12:21.552Z,-1.70
2019-04-01T07:14:52.003Z,-1.50
2019-04-01T07:17:22.303Z,-1.30
2019-04-01T07:19:52.435Z,-1.20
2019-04-01T07:22:22.570Z,-1.10
2019-04-01T07:24:52.894Z,-0.90
2019-04-01T07:27:22.858Z,-0.80
2019-04-01T07:29:53.315Z,-0.70
2019-04-01T07:32:23.350Z,-0.50
2019-04-01T07:34:53.271Z,-0.40
2019-04-01T07:37:23.673Z,-0.30
2019-04-01T07:39:53.702Z,-0.10
2019-04-01T07:42:23.654Z,0.00
2019-04-01T07:44:54.866Z,0.10
2019-04-01T07:47:24.910Z,0.40
2019-04-01T07:49:55.316Z,0.60
2019-04-01T07:52:25.188Z,0.60
2019-04-01T07:54:55.304Z,0.80
2019-04-01T07:57:25.870Z,0.90
2019-04-01T07:59:56.939Z,0.90
2019-04-01T08:02:27.365Z,1.00
2019-04-01T08:04:57.337Z,1.10
2019-04-01T08:07:27.242Z,1.20
2019-04-01T08:09:57.596Z,1.40
2019-04-01T08:12:28.141Z,1.60
2019-04-01T08:14:58.871Z,1.70
2019-04-01T08:17:28.892Z,2.10
2019-04-01T08:19:59.214Z,2.20
2019-04-01T08:22:29.083Z,2.40
2019-04-01T08:24:58.954Z,2.50
2019-04-01T08:27:29.370Z,2.80
2019-04-01T08:29:59.721Z,2.90
2019-04-01T08:32:29.643Z,2.80
2019-04-01T08:35:00.050Z,2.90
2019-04-01T08:37:30.038Z,2.60
2019-04-01T08:39:59.913Z,2.70
2019-04-01T08:42:30.395Z,2.90
2019-04-01T08:45:00.650Z,3.20
2019-04-01T08:47:30.544Z,3.20
2019-04-01T08:50:00.865Z,3.40
2019-04-01T08:52:30.965Z,3.40
2019-04-01T08:55:01.607Z,3.50
2019-04-01T08:57:31.714Z,3.70
2019-04-01T09:00:02.366Z,3.90
2019-04-01T09:02:32.271Z,4.20
2019-04-01T09:05:02.255Z,4.20
2019-04-01T09:07:32.659Z,4.30
2019-04-01T09:10:03.292Z,4.70
2019-04-01T09:12:34.218Z,4.60
2019-04-01T09:15:05.387Z,4.70
2019-04-01T09:17:35.459Z,4.70
2019-04-01T09:20:06.379Z,4.90
2019-04-01T09:22:36.518Z,5.00
2019-04-01T09:25:06.805Z,5.00
2019-04-01T09:27:36.858Z,5.20
2019-04-01T09:30:09.773Z,5.30
2019-04-01T09:32:39.709Z,5.30
2019-04-01T09:35:10.613Z,5.40
2019-04-01T09:37:40.494Z,5.40
2019-04-01T09:40:11.964Z,5.60
2019-04-01T09:42:41.910Z,6.00
2019-04-01T09:45:12.434Z,6.00
2019-04-01T09:47:42.742Z,5.70
2019-04-01T09:50:12.986Z,5.70
2019-04-01T09:52:43.411Z,5.80
2019-04-01T09:55:13.672Z,5.70
2019-04-01T09:57:43.654Z,6.00
2019-04-01T10:00:15.501Z,6.00
2019-04-01T10:02:45.393Z,6.40
2019-04-01T10:05:16.341Z,6.20
2019-04-01T10:07:46.524Z,6.10
2019-04-01T10:10:17.321Z,6.30
2019-04-01T10:12:47.244Z,6.20
2019-04-01T10:15:17.587Z,6.40
2019-04-01T10:17:47.873Z,6.30
2019-04-01T10:20:18.538Z,6.60
2019-04-01T10:22:48.384Z,6.40
2019-04-01T10:25:18.631Z,6.50
2019-04-01T10:27:48.728Z,6.50
2019-04-01T10:30:20.418Z,6.60
2019-04-01T10:32:50.412Z,6.50
2019-04-01T10:35:21.949Z,6.60
2019-04-01T10:37:51.837Z,6.60
2019-04-01T10:40:21.784Z,6.70
2019-04-01T10:42:52.064Z,7.10
2019-04-01T10:45:22.522Z,7.30
2019-04-01T10:47:52.482Z,7.00
2019-04-01T10:50:23.227Z,6.60
2019-04-01T10:52:53.312Z,6.70
2019-04-01T10:55:23.559Z,7.10
2019-04-01T10:57:54.293Z,7.10
2019-04-01T11:00:24.958Z,6.90
2019-04-01T11:02:55.296Z,6.80
2019-04-01T11:05:25.385Z,7.00
2019-04-01T11:07:55.390Z,7.20
2019-04-01T11:10:25.826Z,7.30
2019-04-01T11:12:55.767Z,7.30
2019-04-01T11:15:26.578Z,7.20
2019-04-01T11:17:56.498Z,7.40
2019-04-01T11:20:26.453Z,7.50
2019-04-01T11:22:56.817Z,7.60
2019-04-01T11:25:26.811Z,7.50
2019-04-01T11:27:56.799Z,7.60
2019-04-01T11:30:27.607Z,7.60
2019-04-01T11:32:57.560Z,7.60
2019-04-01T11:35:27.483Z,7.50
2019-04-01T11:37:57.578Z,7.40
2019-04-01T11:40:27.670Z,7.20
2019-04-01T11:42:58.453Z,7.30
2019-04-01T11:45:28.898Z,7.50
2019-04-01T11:47:58.862Z,7.60
2019-04-01T11:50:28.899Z,7.70
2019-04-01T11:52:58.775Z,7.90
2019-04-01T11:55:28.633Z,7.80
2019-04-01T11:57:58.936Z,8.10
2019-04-01T12:00:29.236Z,8.10
2019-04-01T12:02:59.147Z,8.20
2019-04-01T12:05:29.398Z,8.10
2019-04-01T12:07:59.413Z,8.00
2019-04-01T12:10:29.443Z,8.40
2019-04-01T12:13:00.135Z,8.50
2019-04-01T12:15:30.624Z,8.60
2019-04-01T12:18:00.919Z,9.20
2019-04-01T12:20:30.825Z,8.00
2019-04-01T12:23:00.737Z,7.90
2019-04-01T12:25:31.137Z,7.90
2019-04-01T12:28:01.094Z,8.00
2019-04-01T12:30:31.476Z,8.20
2019-04-01T12:33:01.865Z,8.10
2019-04-01T12:35:31.910Z,8.40
2019-04-01T12:38:01.830Z,8.70
2019-04-01T12:40:32.102Z,8.50
2019-04-01T12:43:01.989Z,8.60
2019-04-01T12:45:32.077Z,9.40
2019-04-01T12:48:02.365Z,10.50
2019-04-01T12:50:32.336Z,11.40
2019-04-01T12:53:02.251Z,11.30
2019-04-01T12:55:32.523Z,10.60
2019-04-01T12:58:02.469Z,10.30
2019-04-01T13:00:32.578Z,10.60
2019-04-01T13:03:02.896Z,10.90
2019-04-01T13:05:32.888Z,10.80
2019-04-01T13:08:02.776Z,10.60
2019-04-01T13:10:33.039Z,10.40
2019-04-01T13:13:03.009Z,10.80
2019-04-01T13:15:33.153Z,11.40
2019-04-01T13:18:03.399Z,11.60
2019-04-01T13:20:38.156Z,12.90
2019-04-01T13:23:05.288Z,12.60
2019-04-01T13:25:35.145Z,11.70
2019-04-01T13:28:05.133Z,11.70
2019-04-01T13:30:36.053Z,11.50
2019-04-01T13:33:06.045Z,10.90
2019-04-01T13:35:39.567Z,10.30
2019-04-01T13:38:10.849Z,10.00
2019-04-01T13:40:39.893Z,10.60
2019-04-01T13:43:10.123Z,11.40
2019-04-01T13:45:40.455Z,11.70
2019-04-01T13:48:10.453Z,11.90
2019-04-01T13:50:40.699Z,12.20
2019-04-01T13:53:10.613Z,10.70
2019-04-01T13:55:40.583Z,10.20
2019-04-01T13:58:11.010Z,11.10
2019-04-01T14:00:41.332Z,11.50
2019-04-01T14:03:11.629Z,11.90
2019-04-01T14:05:41.525Z,11.00
2019-04-01T14:08:11.499Z,11.20
2019-04-01T14:10:41.923Z,10.70
2019-04-01T14:13:11.830Z,12.00
2019-04-01T14:15:41.992Z,10.60
2019-04-01T14:18:12.429Z,9.40
2019-04-01T14:20:42.373Z,9.50
2019-04-01T14:23:12.274Z,9.70
2019-04-01T14:25:43.196Z,9.40
2019-04-01T14:28:13.404Z,9.50
2019-04-01T14:30:43.862Z,9.90
2019-04-01T14:33:13.780Z,10.90
2019-04-01T14:35:45.217Z,10.50
2019-04-01T14:38:15.924Z,11.00
2019-04-01T14:40:46.084Z,11.30
2019-04-01T14:43:16.420Z,11.00
2019-04-01T14:45:47.137Z,10.20
2019-04-01T14:48:17.002Z,9.10
2019-04-01T14:50:46.885Z,9.40
2019-04-01T14:53:17.408Z,11.30
2019-04-01T14:55:47.309Z,12.20
2019-04-01T14:58:17.222Z,13.20
2019-04-01T15:00:47.976Z,11.40
2019-04-01T15:03:17.986Z,11.80
2019-04-01T15:05:48.986Z,11.40
2019-04-01T15:08:19.680Z,11.00
2019-04-01T15:10:49.854Z,11.70
2019-04-01T15:13:20.885Z,12.00
2019-04-01T15:15:51.181Z,11.90
2019-04-01T15:18:21.075Z,12.90
2019-04-01T15:20:51.488Z,12.40
2019-04-01T15:23:24.850Z,12.10
2019-04-01T15:25:54.534Z,12.80
2019-04-01T15:28:24.936Z,13.40
2019-04-01T15:30:55.660Z,12.70
2019-04-01T15:33:26.626Z,12.30
2019-04-01T15:35:56.932Z,12.50
2019-04-01T15:38:26.844Z,12.00
2019-04-01T15:40:58.398Z,12.00
2019-04-01T15:43:28.914Z,11.70
2019-04-01T15:45:59.061Z,12.20
2019-04-01T15:48:29.860Z,11.80
2019-04-01T15:50:59.837Z,12.70
2019-04-01T15:53:30.743Z,14.00
2019-04-01T15:56:00.661Z,13.80
2019-04-01T15:58:30.742Z,11.40
2019-04-01T16:01:01.597Z,12.00
2019-04-01T16:03:31.868Z,11.70
2019-04-01T16:06:02.966Z,11.70
2019-04-01T16:08:33.909Z,12.40
2019-04-01T16:11:04.429Z,11.90
2019-04-01T16:13:34.768Z,10.60
2019-04-01T16:16:05.214Z,11.50
2019-04-01T16:18:35.191Z,11.10
2019-04-01T16:21:05.242Z,9.80
2019-04-01T16:23:35.168Z,9.00
2019-04-01T16:26:09.252Z,8.20
2019-04-01T16:28:37.646Z,8.10
2019-04-01T16:31:08.361Z,7.60
2019-04-01T16:33:38.285Z,7.50
2019-04-01T16:36:08.188Z,7.30
2019-04-01T16:38:38.612Z,7.10
2019-04-01T16:41:08.573Z,7.00
2019-04-01T16:43:38.547Z,6.80
2019-04-01T16:46:09.401Z,6.80
2019-04-01T16:48:39.481Z,6.90
2019-04-01T16:51:09.434Z,7.10
2019-04-01T16:53:39.748Z,6.90
2019-04-01T16:56:09.758Z,7.00
2019-04-01T16:58:39.726Z,6.70
2019-04-01T17:01:10.424Z,6.50
2019-04-01T17:03:40.365Z,6.80
2019-04-01T17:06:10.449Z,7.00
2019-04-01T17:08:40.441Z,6.80
2019-04-01T17:11:10.359Z,6.60
2019-04-01T17:13:40.329Z,6.30
2019-04-01T17:16:10.743Z,5.90
2019-04-01T17:18:41.559Z,5.70
2019-04-01T17:21:11.921Z,5.60
2019-04-01T17:23:42.204Z,5.30
2019-04-01T17:26:12.540Z,5.10
2019-04-01T17:28:42.533Z,5.00
2019-04-01T17:31:12.810Z,4.90
2019-04-01T17:33:43.033Z,4.70
2019-04-01T17:36:15.745Z,4.70
2019-04-01T17:38:47.985Z,4.60
2019-04-01T17:41:16.891Z,4.50
2019-04-01T17:43:46.970Z,4.40
2019-04-01T17:46:16.957Z,4.20
2019-04-01T17:48:46.950Z,4.10
2019-04-01T17:51:17.252Z,4.00
2019-04-01T17:53:47.252Z,3.90
2019-04-01T17:56:18.089Z,3.70
2019-04-01T17:58:48.736Z,3.50
2019-04-01T18:01:18.946Z,3.30
2019-04-01T18:03:49.089Z,2.90
2019-04-01T18:06:19.050Z,2.80
2019-04-01T18:08:48.927Z,2.60
2019-04-01T18:11:19.232Z,2.40
2019-04-01T18:13:49.157Z,2.30
2019-04-01T18:16:19.475Z,2.20
2019-04-01T18:18:49.682Z,2.00
2019-04-01T18:21:19.574Z,1.90
2019-04-01T18:23:49.479Z,1.70
2019-04-01T18:26:19.654Z,1.60
2019-04-01T18:28:49.545Z,1.40
2019-04-01T18:31:19.605Z,1.30
2019-04-01T18:33:56.232Z,1.20
2019-04-01T18:36:22.979Z,1.10
2019-04-01T18:38:53.534Z,0.90
2019-04-01T18:41:23.482Z,0.80
2019-04-01T18:43:53.653Z,0.60
2019-04-01T18:46:24.173Z,0.60
2019-04-01T18:48:54.102Z,0.20
2019-04-01T18:51:24.059Z,0.20
2019-04-01T18:53:54.347Z,0.20
2019-04-01T18:56:24.232Z,0.20
2019-04-01T18:58:54.415Z,0.00
2019-04-01T19:01:25.323Z,0.00
2019-04-01T19:03:55.240Z,0.00
2019-04-01T19:06:25.187Z,-0.10
2019-04-01T19:09:08.406Z,-0.20
2019-04-01T19:11:27.060Z,-0.20
2019-04-01T19:13:57.416Z,-0.30
2019-04-01T19:16:27.773Z,-0.40
2019-04-01T19:18:57.677Z,-0.40
2019-04-01T19:21:27.927Z,-0.50
2019-04-01T19:23:57.872Z,-0.60
2019-04-01T19:26:27.770Z,-0.70
2019-04-01T19:28:58.403Z,-0.70
2019-04-01T19:31:28.659Z,-0.70
2019-04-01T19:33:58.681Z,-0.70
2019-04-01T19:36:29.083Z,-0.60
2019-04-01T19:39:00.179Z,-0.70
2019-04-01T19:41:30.531Z,-0.90
2019-04-01T19:44:00.421Z,-0.90
2019-04-01T19:46:30.574Z,-0.80
2019-04-01T19:49:04.807Z,-0.80
2019-04-01T19:51:32.208Z,-0.90
2019-04-01T19:54:02.356Z,-1.10
2019-04-01T19:56:32.308Z,-1.10
2019-04-01T19:59:02.449Z,-1.30
2019-04-01T20:01:32.920Z,-1.20
2019-04-01T20:04:02.944Z,-1.20
2019-04-01T20:06:32.875Z,-1.20
2019-04-01T20:09:03.068Z,-1.20
2019-04-01T20:11:32.962Z,-1.20
2019-04-01T20:14:02.993Z,-1.30
2019-04-01T20:16:33.523Z,-1.40
2019-04-01T20:19:04.387Z,-1.40
2019-04-01T20:21:35.219Z,-1.40
2019-04-01T20:24:05.396Z,-1.50
2019-04-01T20:26:35.314Z,-1.40
2019-04-01T20:29:05.557Z,-1.40
2019-04-01T20:31:35.758Z,-1.40
2019-04-01T20:34:18.780Z,-1.60
2019-04-01T20:36:37.678Z,-1.60
2019-04-01T20:39:09.144Z,-1.60
2019-04-01T20:41:39.251Z,-1.60
2019-04-01T20:44:09.180Z,-1.70
2019-04-01T20:46:39.549Z,-1.70
2019-04-01T20:49:09.654Z,-1.80
2019-04-01T20:51:39.539Z,-1.80
2019-04-01T20:54:09.503Z,-1.80
2019-04-01T20:56:39.786Z,-1.80
2019-04-01T20:59:10.422Z,-1.90
2019-04-01T21:01:41.026Z,-1.80
2019-04-01T21:04:10.932Z,-1.90
2019-04-01T21:06:40.925Z,-1.90
2019-04-01T21:09:11.683Z,-2.00
2019-04-01T21:11:41.710Z,-2.10
2019-04-01T21:14:11.616Z,-2.10
2019-04-01T21:16:42.364Z,-2.00
2019-04-01T21:19:12.357Z,-2.10
2019-04-01T21:21:42.247Z,-2.20
2019-04-01T21:24:12.517Z,-2.30
2019-04-01T21:26:42.408Z,-2.30
2019-04-01T21:29:12.315Z,-2.50
2019-04-01T21:31:42.898Z,-2.50
2019-04-01T21:34:12.810Z,-2.50
2019-04-01T21:36:42.726Z,-2.60
2019-04-01T21:39:13.133Z,-2.70
2019-04-01T21:41:43.048Z,-2.70
2019-04-01T21:44:13.124Z,-2.70
2019-04-01T21:46:43.688Z,-2.70
2019-04-01T21:49:13.668Z,-2.70
2019-04-01T21:51:43.532Z,-2.60
2019-04-01T21:54:13.770Z,-2.60
2019-04-01T21:56:43.645Z,-2.60
2019-04-01T21:59:13.574Z,-2.50
2019-04-01T22:01:45.313Z,-2.50
2019-04-01T22:04:16.173Z,-2.60
2019-04-01T22:06:46.443Z,-2.60
2019-04-01T22:09:16.433Z,-2.60
2019-04-01T22:11:46.444Z,-2.60
2019-04-01T22:14:16.964Z,-2.50
2019-04-01T22:16:48.034Z,-2.60
2019-04-01T22:19:18.655Z,-2.60
2019-04-01T22:21:48.652Z,-2.70
2019-04-01T22:24:18.621Z,-2.70
2019-04-01T22:26:49.027Z,-2.70
2019-04-01T22:29:19.155Z,-2.70
2019-04-01T22:31:50.691Z,-2.80
2019-04-01T22:34:20.581Z,-2.80
2019-04-01T22:36:50.507Z,-2.90
2019-04-01T22:39:26.888Z,-3.10
2019-04-01T22:41:52.420Z,-3.20
2019-04-01T22:44:23.413Z,-3.20
2019-04-01T22:46:54.221Z,-3.30
2019-04-01T22:49:24.613Z,-3.40
2019-04-01T22:51:54.511Z,-3.40
2019-04-01T22:54:24.498Z,-3.40
2019-04-01T22:56:55.143Z,-3.40
2019-04-01T22:59:25.871Z,-3.50
2019-04-01T23:01:59.298Z,-3.60
2019-04-01T23:04:28.043Z,-3.60
2019-04-01T23:06:58.300Z,-3.60
2019-04-01T23:09:29.018Z,-3.50
2019-04-01T23:11:59.472Z,-3.50
2019-04-01T23:14:29.355Z,-3.50
2019-04-01T23:16:59.671Z,-3.50
2019-04-01T23:19:29.934Z,-3.50
2019-04-01T23:22:00.249Z,-3.50
2019-04-01T23:24:31.013Z,-3.60
2019-04-01T23:27:01.541Z,-3.60
2019-04-01T23:29:31.540Z,-3.60
2019-04-01T23:32:02.294Z,-3.60
2019-04-01T23:34:32.200Z,-3.60
2019-04-01T23:37:02.106Z,-3.70
2019-04-01T23:39:33.282Z,-3.60
2019-04-01T23:42:03.990Z,-3.60
2019-04-01T23:44:34.165Z,-3.80
2019-04-01T23:47:04.469Z,-3.80
2019-04-01T23:49:34.413Z,-3.80
2019-04-01T23:52:05.467Z,-3.90
2019-04-01T23:54:36.038Z,-3.80
2019-04-01T23:57:06.364Z,-3.80
2019-04-01T23:59:36.281Z,-3.80
